createdAt,value
2017-08-28T00:01:40.930Z,17.63
2017-08-28T00:04:08.311Z,23.73
2017-08-28T00:06:35.573Z,17.00
2017-08-28T00:09:02.928Z,16.07
2017-08-28T00:11:30.241Z,16.90
2017-08-28T00:13:57.579Z,15.80
2017-08-28T00:16:24.888Z,18.20
2017-08-28T00:18:52.190Z,14.10
2017-08-28T00:21:19.472Z,15.37
2017-08-28T00:23:46.785Z,17.87
2017-08-28T00:26:14.099Z,15.80
2017-08-28T00:28:41.396Z,12.13
2017-08-28T00:31:08.668Z,17.33
2017-08-28T00:33:36.000Z,20.07
2017-08-28T00:36:03.284Z,15.10
2017-08-28T00:38:30.567Z,12.90
2017-08-28T00:40:57.928Z,13.03
2017-08-28T00:43:25.191Z,12.33
2017-08-28T00:45:52.473Z,13.80
2017-08-28T00:48:19.783Z,15.03
2017-08-28T00:50:47.090Z,14.43
2017-08-28T00:53:14.387Z,13.87
2017-08-28T00:55:41.694Z,14.17
2017-08-28T00:58:09.016Z,11.83
2017-08-28T01:00:36.298Z,11.20
2017-08-28T01:03:03.581Z,14.67
2017-08-28T01:05:30.882Z,12.53
2017-08-28T01:07:58.156Z,14.00
2017-08-28T01:10:25.470Z,19.53
2017-08-28T01:12:52.739Z,15.03
2017-08-28T01:15:20.014Z,12.60
2017-08-28T01:17:47.325Z,18.50
2017-08-28T01:20:14.591Z,19.67
2017-08-28T01:22:41.891Z,11.93
2017-08-28T01:25:09.176Z,16.77
2017-08-28T01:27:36.475Z,15.40
2017-08-28T01:30:03.796Z,16.70
2017-08-28T01:32:31.063Z,19.37
2017-08-28T01:34:58.368Z,18.33
2017-08-28T01:37:25.670Z,12.93
2017-08-28T01:39:52.955Z,12.90
2017-08-28T01:42:20.271Z,15.80
2017-08-28T01:44:47.565Z,17.53
2017-08-28T01:47:14.859Z,12.33
2017-08-28T01:49:42.154Z,23.13
2017-08-28T01:52:09.442Z,12.20
2017-08-28T01:54:36.745Z,20.37
2017-08-28T01:57:04.043Z,18.67
2017-08-28T01:59:31.335Z,13.93
2017-08-28T02:01:58.652Z,13.63
2017-08-28T02:04:25.923Z,20.23
2017-08-28T02:06:53.211Z,14.20
2017-08-28T02:09:20.514Z,27.40
2017-08-28T02:11:47.832Z,19.73
2017-08-28T02:14:15.130Z,13.43
2017-08-28T02:16:42.445Z,15.03
2017-08-28T02:19:09.734Z,17.27
2017-08-28T02:21:37.063Z,17.07
2017-08-28T02:24:04.347Z,17.40
2017-08-28T02:26:31.649Z,14.63
2017-08-28T02:28:58.944Z,12.90
2017-08-28T02:31:26.247Z,17.00
2017-08-28T02:33:53.537Z,18.80
2017-08-28T02:36:20.853Z,11.23
2017-08-28T02:38:48.177Z,11.67
2017-08-28T02:41:15.453Z,13.47
2017-08-28T02:43:42.786Z,13.30
2017-08-28T02:46:10.102Z,12.60
2017-08-28T02:48:37.393Z,13.53
2017-08-28T02:51:04.694Z,13.60
2017-08-28T02:53:32.142Z,12.53
2017-08-28T02:55:59.430Z,15.33
2017-08-28T02:58:26.764Z,11.43
2017-08-28T03:00:54.046Z,13.70
2017-08-28T03:03:21.356Z,11.40
2017-08-28T03:05:48.678Z,10.93
2017-08-28T03:08:15.997Z,15.77
2017-08-28T03:10:43.298Z,13.07
2017-08-28T03:13:10.564Z,13.70
2017-08-28T03:15:37.896Z,10.17
2017-08-28T03:18:05.172Z,10.27
2017-08-28T03:20:32.444Z,11.90
2017-08-28T03:22:59.764Z,16.90
2017-08-28T03:25:27.082Z,12.90
2017-08-28T03:27:54.389Z,16.60
2017-08-28T03:30:21.678Z,17.97
2017-08-28T03:32:49.006Z,12.23
2017-08-28T03:35:16.294Z,10.10
2017-08-28T03:37:43.582Z,12.93
2017-08-28T03:40:10.931Z,13.03
2017-08-28T03:42:38.211Z,14.37
2017-08-28T03:45:05.501Z,14.63
2017-08-28T03:47:32.828Z,13.03
2017-08-28T03:50:00.114Z,11.60
2017-08-28T03:52:27.398Z,12.50
2017-08-28T03:54:54.711Z,12.13
2017-08-28T03:57:21.995Z,13.53
2017-08-28T03:59:49.325Z,15.87
2017-08-28T04:02:16.605Z,17.80
2017-08-28T04:04:44.039Z,16.43
2017-08-28T04:07:11.328Z,14.93
2017-08-28T04:09:38.596Z,15.90
2017-08-28T04:12:05.915Z,15.70
2017-08-28T04:14:33.197Z,20.47
2017-08-28T04:17:00.504Z,18.77
2017-08-28T04:19:27.807Z,16.90
2017-08-28T04:21:55.127Z,14.37
2017-08-28T04:24:22.400Z,19.10
2017-08-28T04:26:49.722Z,21.27
2017-08-28T04:29:17.021Z,15.57
2017-08-28T04:31:44.306Z,17.07
2017-08-28T04:34:11.618Z,17.97
2017-08-28T04:36:38.903Z,22.63
2017-08-28T04:39:06.199Z,24.43
2017-08-28T04:41:33.521Z,18.73
2017-08-28T04:44:00.796Z,23.40
2017-08-28T04:46:28.103Z,19.27
2017-08-28T04:48:55.389Z,18.97
2017-08-28T04:51:22.695Z,20.73
2017-08-28T04:53:49.997Z,21.83
2017-08-28T04:56:17.302Z,17.40
2017-08-28T04:58:44.587Z,15.83
2017-08-28T05:01:11.869Z,16.43
2017-08-28T05:03:39.193Z,14.30
2017-08-28T05:06:06.474Z,14.40
2017-08-28T05:08:33.761Z,18.60
2017-08-28T05:11:01.061Z,12.87
2017-08-28T05:13:28.336Z,16.27
2017-08-28T05:15:55.651Z,13.80
2017-08-28T05:18:22.926Z,13.27
2017-08-28T05:20:50.231Z,19.90
2017-08-28T05:23:17.505Z,13.80
2017-08-28T05:25:44.778Z,13.17
2017-08-28T05:28:12.084Z,11.83
2017-08-28T05:30:39.380Z,13.50
2017-08-28T05:33:06.659Z,12.53
2017-08-28T05:35:33.975Z,12.17
2017-08-28T05:38:01.256Z,12.30
2017-08-28T05:40:28.542Z,15.10
2017-08-28T05:42:55.856Z,14.67
2017-08-28T05:45:23.165Z,14.37
2017-08-28T05:47:50.483Z,15.10
2017-08-28T05:50:17.756Z,14.30
2017-08-28T05:52:45.049Z,13.80
2017-08-28T05:55:12.367Z,16.50
2017-08-28T05:57:39.683Z,19.13
2017-08-28T06:00:06.988Z,13.87
2017-08-28T06:02:34.311Z,23.13
2017-08-28T06:05:01.601Z,18.97
2017-08-28T06:07:28.890Z,25.77
2017-08-28T06:09:56.193Z,27.70
2017-08-28T06:12:23.464Z,23.63
2017-08-28T06:14:50.903Z,21.33
2017-08-28T06:17:19.366Z,25.03
2017-08-28T06:19:46.853Z,22.83
2017-08-28T06:22:14.153Z,24.00
2017-08-28T06:24:41.469Z,24.23
2017-08-28T06:27:08.776Z,26.63
2017-08-28T06:29:36.055Z,18.30
2017-08-28T06:32:03.366Z,22.87
2017-08-28T06:34:30.672Z,23.37
2017-08-28T06:36:57.957Z,24.80
2017-08-28T06:39:25.276Z,20.33
2017-08-28T06:41:52.556Z,21.30
2017-08-28T06:44:19.857Z,18.80
2017-08-28T06:46:47.172Z,15.60
2017-08-28T06:49:14.446Z,17.33
2017-08-28T06:51:41.750Z,17.47
2017-08-28T06:54:09.075Z,14.67
2017-08-28T06:56:36.381Z,13.10
2017-08-28T06:59:03.660Z,13.23
2017-08-28T07:01:30.973Z,14.10
2017-08-28T07:03:58.270Z,14.27
2017-08-28T07:06:26.584Z,10.53
2017-08-28T07:08:53.854Z,12.73
2017-08-28T07:11:21.140Z,13.23
2017-08-28T07:13:48.444Z,12.90
2017-08-28T07:16:21.584Z,13.43
2017-08-28T07:18:48.890Z,12.17
2017-08-28T07:21:16.167Z,13.23
2017-08-28T07:23:43.475Z,9.60
2017-08-28T07:26:10.762Z,11.00
2017-08-28T07:28:38.035Z,11.40
2017-08-28T07:31:05.340Z,10.60
2017-08-28T07:33:32.612Z,12.60
2017-08-28T07:35:59.923Z,12.83
2017-08-28T07:38:27.256Z,10.40
2017-08-28T07:40:54.526Z,13.00
2017-08-28T07:43:21.835Z,9.33
2017-08-28T07:45:49.101Z,11.50
2017-08-28T07:48:16.378Z,13.60
2017-08-28T07:50:43.685Z,9.77
2017-08-28T07:53:10.965Z,10.80
2017-08-28T07:55:38.258Z,11.17
2017-08-28T07:58:05.567Z,11.57
2017-08-28T08:00:32.845Z,10.07
2017-08-28T08:03:00.104Z,10.50
2017-08-28T08:05:27.407Z,14.67
2017-08-28T08:07:54.748Z,9.90
2017-08-28T08:10:22.055Z,13.77
2017-08-28T08:12:49.323Z,11.93
2017-08-28T08:15:16.627Z,11.10
2017-08-28T08:17:43.898Z,12.50
2017-08-28T08:20:11.228Z,10.80
2017-08-28T08:22:38.484Z,9.90
2017-08-28T08:25:05.752Z,9.33
2017-08-28T08:27:33.063Z,10.90
2017-08-28T08:30:00.346Z,10.47
2017-08-28T08:32:27.654Z,10.30
2017-08-28T08:34:54.941Z,15.93
2017-08-28T08:37:22.211Z,9.43
2017-08-28T08:39:49.507Z,12.33
2017-08-28T08:42:16.845Z,10.10
2017-08-28T08:44:44.126Z,9.23
2017-08-28T08:47:11.390Z,9.93
2017-08-28T08:49:38.711Z,10.27
2017-08-28T08:52:05.971Z,11.57
2017-08-28T08:54:33.256Z,9.43
2017-08-28T08:57:00.550Z,10.77
2017-08-28T08:59:27.867Z,9.07
2017-08-28T09:01:55.153Z,9.63
2017-08-28T09:04:22.415Z,10.30
2017-08-28T09:06:49.717Z,10.50
2017-08-28T09:09:16.987Z,9.90
2017-08-28T09:11:44.301Z,10.97
2017-08-28T09:14:11.575Z,8.90
2017-08-28T09:16:38.850Z,9.53
2017-08-28T09:19:06.155Z,9.30
2017-08-28T09:21:33.428Z,9.57
2017-08-28T09:24:00.699Z,11.40
2017-08-28T09:26:28.009Z,10.60
2017-08-28T09:28:55.302Z,11.80
2017-08-28T09:31:22.600Z,10.10
2017-08-28T09:33:49.907Z,12.67
2017-08-28T09:36:17.212Z,11.40
2017-08-28T09:38:44.515Z,14.03
2017-08-28T09:41:11.809Z,11.00
2017-08-28T09:43:39.093Z,12.63
2017-08-28T09:46:06.418Z,12.00
2017-08-28T09:48:33.683Z,14.80
2017-08-28T09:51:00.966Z,11.43
2017-08-28T09:53:28.272Z,12.23
2017-08-28T09:55:55.559Z,11.43
2017-08-28T09:58:22.836Z,10.63
2017-08-28T10:00:50.147Z,11.67
2017-08-28T10:03:17.436Z,11.43
2017-08-28T10:05:44.727Z,11.10
2017-08-28T10:08:12.040Z,16.00
2017-08-28T10:10:39.349Z,14.00
2017-08-28T10:13:06.696Z,17.70
2017-08-28T10:15:33.981Z,14.70
2017-08-28T10:18:01.268Z,15.90
2017-08-28T10:20:28.563Z,16.30
2017-08-28T10:22:55.846Z,13.70
2017-08-28T10:25:23.151Z,13.20
2017-08-28T10:27:50.434Z,13.40
2017-08-28T10:30:17.731Z,12.70
2017-08-28T10:32:45.048Z,13.00
2017-08-28T10:35:12.349Z,12.80
2017-08-28T10:37:39.671Z,12.67
2017-08-28T10:40:06.953Z,14.10
2017-08-28T10:42:34.232Z,12.30
2017-08-28T10:45:01.547Z,12.50
2017-08-28T10:47:28.886Z,12.43
2017-08-28T10:49:56.151Z,12.60
2017-08-28T10:52:23.428Z,11.87
2017-08-28T10:54:50.747Z,11.37
2017-08-28T10:57:18.019Z,11.37
2017-08-28T10:59:45.300Z,11.00
2017-08-28T11:02:12.599Z,16.70
2017-08-28T11:04:39.867Z,11.97
2017-08-28T11:07:07.164Z,10.97
2017-08-28T11:09:34.430Z,12.43
2017-08-28T11:12:01.744Z,12.80
2017-08-28T11:14:29.061Z,12.93
2017-08-28T11:16:56.337Z,11.67
2017-08-28T11:19:23.616Z,12.27
2017-08-28T11:21:50.922Z,11.97
2017-08-28T11:24:18.234Z,12.53
2017-08-28T11:26:45.559Z,12.63
2017-08-28T11:29:12.831Z,12.60
2017-08-28T11:31:40.108Z,11.80
2017-08-28T11:34:07.412Z,13.57
2017-08-28T11:36:34.703Z,19.00
2017-08-28T11:39:01.975Z,11.53
2017-08-28T11:41:29.284Z,12.07
2017-08-28T11:43:56.569Z,12.00
2017-08-28T11:46:23.830Z,12.33
2017-08-28T11:48:51.136Z,11.17
2017-08-28T11:51:18.395Z,10.97
2017-08-28T11:53:45.659Z,10.50
2017-08-28T11:56:12.957Z,13.20
2017-08-28T11:58:40.425Z,12.30
2017-08-28T12:01:07.703Z,11.50
2017-08-28T12:03:35.002Z,11.20
2017-08-28T12:06:02.298Z,11.73
2017-08-28T12:08:29.573Z,12.40
2017-08-28T12:10:56.884Z,11.30
2017-08-28T12:13:24.156Z,11.40
2017-08-28T12:15:51.467Z,11.50
2017-08-28T12:18:18.751Z,11.90
2017-08-28T12:20:46.075Z,12.83
2017-08-28T12:23:13.371Z,12.83
2017-08-28T12:25:40.683Z,15.10
2017-08-28T12:28:08.041Z,11.57
2017-08-28T12:30:35.328Z,12.23
2017-08-28T12:33:02.604Z,10.17
2017-08-28T12:35:29.891Z,12.37
2017-08-28T12:37:57.170Z,13.37
2017-08-28T12:40:24.463Z,10.50
2017-08-28T12:42:51.742Z,10.27
2017-08-28T12:45:19.036Z,10.20
2017-08-28T12:47:46.307Z,11.27
2017-08-28T12:50:13.658Z,11.43
2017-08-28T12:52:40.930Z,9.90
2017-08-28T12:55:08.187Z,13.83
2017-08-28T12:57:35.497Z,12.40
2017-08-28T13:00:02.820Z,11.10
2017-08-28T13:02:30.096Z,11.00
2017-08-28T13:04:57.362Z,11.33
2017-08-28T13:07:24.659Z,11.77
2017-08-28T13:09:51.932Z,11.97
2017-08-28T13:12:19.235Z,16.37
2017-08-28T13:14:46.543Z,13.20
2017-08-28T13:17:13.819Z,16.20
2017-08-28T13:19:41.151Z,15.00
2017-08-28T13:22:08.428Z,14.00
2017-08-28T13:24:35.703Z,16.50
2017-08-28T13:27:03.015Z,15.93
2017-08-28T13:29:30.291Z,14.80
2017-08-28T13:31:57.572Z,12.10
2017-08-28T13:34:24.888Z,14.90
2017-08-28T13:36:52.159Z,13.90
2017-08-28T13:39:19.567Z,11.30
2017-08-28T13:41:46.880Z,12.77
2017-08-28T13:44:14.174Z,11.10
2017-08-28T13:46:41.438Z,9.70
2017-08-28T13:49:08.747Z,14.30
2017-08-28T13:51:36.047Z,11.97
2017-08-28T13:54:03.355Z,11.70
2017-08-28T13:56:30.649Z,14.83
2017-08-28T13:58:57.922Z,12.17
2017-08-28T14:01:25.217Z,11.60
2017-08-28T14:03:52.528Z,11.87
2017-08-28T14:06:19.796Z,9.03
2017-08-28T14:08:47.063Z,11.53
2017-08-28T14:11:14.355Z,9.43
2017-08-28T14:13:41.658Z,12.43
2017-08-28T14:16:08.968Z,16.07
2017-08-28T14:18:36.255Z,10.77
2017-08-28T14:21:03.573Z,13.27
2017-08-28T14:23:30.944Z,11.40
2017-08-28T14:25:58.227Z,11.53
2017-08-28T14:28:25.533Z,12.10
2017-08-28T14:30:52.808Z,10.53
2017-08-28T14:33:20.103Z,11.27
2017-08-28T14:35:47.375Z,11.13
2017-08-28T14:38:14.689Z,13.03
2017-08-28T14:40:41.995Z,11.10
2017-08-28T14:43:09.264Z,12.83
2017-08-28T14:45:36.533Z,12.60
2017-08-28T14:48:03.828Z,10.83
2017-08-28T14:50:31.123Z,10.17
2017-08-28T14:52:58.389Z,9.93
2017-08-28T14:55:25.691Z,12.97
2017-08-28T14:57:52.962Z,10.83
2017-08-28T15:00:20.242Z,10.77
2017-08-28T15:02:47.548Z,11.63
2017-08-28T15:05:14.808Z,9.20
2017-08-28T15:07:42.073Z,11.77
2017-08-28T15:10:09.388Z,10.83
2017-08-28T15:12:36.692Z,12.47
2017-08-28T15:15:03.935Z,13.20
2017-08-28T15:17:31.231Z,9.33
2017-08-28T15:19:58.491Z,10.10
2017-08-28T15:22:25.808Z,11.20
2017-08-28T15:24:53.072Z,9.53
2017-08-28T15:27:20.339Z,11.07
2017-08-28T15:29:47.630Z,10.10
2017-08-28T15:32:14.899Z,12.90
2017-08-28T15:34:42.198Z,13.50
2017-08-28T15:37:09.456Z,9.90
2017-08-28T15:39:36.748Z,10.10
2017-08-28T15:42:04.051Z,9.60
2017-08-28T15:44:31.770Z,8.87
2017-08-28T15:46:59.064Z,12.50
2017-08-28T15:49:26.326Z,8.63
2017-08-28T15:51:53.595Z,14.57
2017-08-28T15:54:20.891Z,9.70
2017-08-28T15:56:48.180Z,8.80
2017-08-28T15:59:15.485Z,11.20
2017-08-28T16:01:42.746Z,14.10
2017-08-28T16:04:10.016Z,11.60
2017-08-28T16:06:37.336Z,10.53
2017-08-28T16:09:04.605Z,9.60
2017-08-28T16:11:31.878Z,11.23
2017-08-28T16:13:59.183Z,9.93
2017-08-28T16:16:26.446Z,9.80
2017-08-28T16:18:53.750Z,13.07
2017-08-28T16:21:21.037Z,11.07
2017-08-28T16:23:48.331Z,13.33
2017-08-28T16:26:15.605Z,9.00
2017-08-28T16:28:42.891Z,10.27
2017-08-28T16:31:10.171Z,9.27
2017-08-28T16:33:37.459Z,10.83
2017-08-28T16:36:04.761Z,10.20
2017-08-28T16:38:32.026Z,9.47
2017-08-28T16:40:59.344Z,9.40
2017-08-28T16:43:26.607Z,14.53
2017-08-28T16:45:53.916Z,10.70
2017-08-28T16:48:21.176Z,9.97
2017-08-28T16:50:48.455Z,10.63
2017-08-28T16:53:15.760Z,11.27
2017-08-28T16:55:43.015Z,8.87
2017-08-28T16:58:10.328Z,9.43
2017-08-28T17:00:37.603Z,12.37
2017-08-28T17:03:04.867Z,12.00
2017-08-28T17:05:32.182Z,14.97
2017-08-28T17:07:59.461Z,16.33
2017-08-28T17:10:26.785Z,11.37
2017-08-28T17:12:54.062Z,13.07
2017-08-28T17:15:21.340Z,12.87
2017-08-28T17:17:48.644Z,12.50
2017-08-28T17:20:15.940Z,13.33
2017-08-28T17:22:46.222Z,11.00
2017-08-28T17:25:13.510Z,13.27
2017-08-28T17:27:40.819Z,14.33
2017-08-28T17:30:08.095Z,12.90
2017-08-28T17:32:35.770Z,12.30
2017-08-28T17:35:03.048Z,15.37
2017-08-28T17:37:30.315Z,13.43
2017-08-28T17:39:57.635Z,18.47
2017-08-28T17:42:24.953Z,12.43
2017-08-28T17:44:52.238Z,12.73
2017-08-28T17:47:19.538Z,12.33
2017-08-28T17:49:46.823Z,14.10
2017-08-28T17:52:14.150Z,15.03
2017-08-28T17:54:41.424Z,13.30
2017-08-28T17:57:09.576Z,17.33
2017-08-28T17:59:36.892Z,12.97
2017-08-28T18:02:04.167Z,14.60
2017-08-28T18:04:31.440Z,13.00
2017-08-28T18:06:58.754Z,15.57
2017-08-28T18:09:26.064Z,12.87
2017-08-28T18:11:53.368Z,14.80
2017-08-28T18:14:20.692Z,18.20
2017-08-28T18:16:47.971Z,17.70
2017-08-28T18:19:15.247Z,12.87
2017-08-28T18:21:42.568Z,14.27
2017-08-28T18:24:09.865Z,16.10
2017-08-28T18:26:37.151Z,13.63
2017-08-28T18:29:04.457Z,19.23
2017-08-28T18:31:31.735Z,16.63
2017-08-28T18:33:59.011Z,15.80
2017-08-28T18:36:26.313Z,14.90
2017-08-28T18:38:53.631Z,16.10
2017-08-28T18:41:20.939Z,14.80
2017-08-28T18:43:48.245Z,14.63
2017-08-28T18:46:15.528Z,13.20
2017-08-28T18:48:42.844Z,14.03
2017-08-28T18:51:10.119Z,20.50
2017-08-28T18:53:37.396Z,20.13
2017-08-28T18:56:04.707Z,20.33
2017-08-28T18:58:32.020Z,15.87
2017-08-28T19:00:59.331Z,15.07
2017-08-28T19:03:26.613Z,15.67
2017-08-28T19:05:53.912Z,19.50
2017-08-28T19:08:21.275Z,17.87
2017-08-28T19:10:48.551Z,20.33
2017-08-28T19:13:15.827Z,20.27
2017-08-28T19:15:43.145Z,23.20
2017-08-28T19:18:10.419Z,15.93
2017-08-28T19:20:37.752Z,15.50
2017-08-28T19:23:05.048Z,18.50
2017-08-28T19:25:32.315Z,13.57
2017-08-28T19:27:59.634Z,17.57
2017-08-28T19:30:26.915Z,18.53
2017-08-28T19:32:54.230Z,18.10
2017-08-28T19:35:21.504Z,15.93
2017-08-28T19:37:48.794Z,13.27
2017-08-28T19:40:16.099Z,17.43
2017-08-28T19:42:43.379Z,15.20
2017-08-28T19:45:10.761Z,16.97
2017-08-28T19:47:38.045Z,13.53
2017-08-28T19:50:05.361Z,17.30
2017-08-28T19:52:32.639Z,18.07
2017-08-28T19:54:59.928Z,15.43
2017-08-28T19:57:27.224Z,18.40
2017-08-28T19:59:54.507Z,22.40
2017-08-28T20:02:37.507Z,17.20
2017-08-28T20:05:04.788Z,16.17
2017-08-28T20:07:32.060Z,14.57
2017-08-28T20:09:59.371Z,15.30
2017-08-28T20:12:26.664Z,15.80
2017-08-28T20:14:53.947Z,16.67
2017-08-28T20:17:21.240Z,13.47
2017-08-28T20:19:48.516Z,20.33
2017-08-28T20:22:15.811Z,12.70
2017-08-28T20:24:43.099Z,15.13
2017-08-28T20:27:10.405Z,16.53
2017-08-28T20:29:37.672Z,15.73
2017-08-28T20:32:04.971Z,15.73
2017-08-28T20:34:32.269Z,18.30
2017-08-28T20:36:59.539Z,15.73
2017-08-28T20:39:26.842Z,12.97
2017-08-28T20:41:54.107Z,13.23
2017-08-28T20:44:21.412Z,14.77
2017-08-28T20:46:48.715Z,20.27
2017-08-28T20:49:15.992Z,17.50
2017-08-28T20:51:43.292Z,13.23
2017-08-28T20:54:10.579Z,11.80
2017-08-28T20:56:37.899Z,12.07
2017-08-28T20:59:05.180Z,13.07
2017-08-28T21:01:32.516Z,12.40
2017-08-28T21:03:59.812Z,17.27
2017-08-28T21:06:27.092Z,11.50
2017-08-28T21:08:54.423Z,17.00
2017-08-28T21:11:21.701Z,17.80
2017-08-28T21:13:48.982Z,16.30
2017-08-28T21:16:16.305Z,12.30
2017-08-28T21:18:43.592Z,14.37
2017-08-28T21:21:10.903Z,10.63
2017-08-28T21:23:38.188Z,10.23
2017-08-28T21:26:05.447Z,11.03
2017-08-28T21:28:32.752Z,10.73
2017-08-28T21:31:00.059Z,10.93
2017-08-28T21:33:27.319Z,13.20
2017-08-28T21:35:54.580Z,9.20
2017-08-28T21:38:21.875Z,11.10
2017-08-28T21:40:49.168Z,10.40
2017-08-28T21:43:16.430Z,9.23
2017-08-28T21:45:43.719Z,10.07
2017-08-28T21:48:10.983Z,10.80
2017-08-28T21:50:38.280Z,9.53
2017-08-28T21:53:05.539Z,12.53
2017-08-28T21:55:32.826Z,9.63
2017-08-28T21:58:00.115Z,9.17
2017-08-28T22:00:27.383Z,18.50
2017-08-28T22:02:54.857Z,12.30
2017-08-28T22:05:22.147Z,9.43
2017-08-28T22:07:49.435Z,12.33
2017-08-28T22:10:16.747Z,8.47
2017-08-28T22:12:44.003Z,9.87
2017-08-28T22:15:11.263Z,8.73
2017-08-28T22:17:38.550Z,8.50
2017-08-28T22:20:05.847Z,10.27
2017-08-28T22:22:33.151Z,8.13
2017-08-28T22:25:00.416Z,11.13
2017-08-28T22:27:27.718Z,10.83
2017-08-28T22:29:55.007Z,9.53
2017-08-28T22:32:22.302Z,11.97
2017-08-28T22:34:49.567Z,11.80
2017-08-28T22:37:16.828Z,8.43
2017-08-28T22:39:44.128Z,9.20
2017-08-28T22:42:11.395Z,7.33
2017-08-28T22:44:38.651Z,10.70
2017-08-28T22:47:05.946Z,9.50
2017-08-28T22:49:33.254Z,10.03
2017-08-28T22:52:00.519Z,10.50
2017-08-28T22:54:27.795Z,7.67
2017-08-28T22:56:55.087Z,10.30
2017-08-28T22:59:22.347Z,7.10
2017-08-28T23:01:49.646Z,14.17
2017-08-28T23:06:50.520Z,11.83
2017-08-28T23:09:17.819Z,6.63
2017-08-28T23:11:45.078Z,14.03
2017-08-28T23:14:12.344Z,11.40
2017-08-28T23:16:39.680Z,8.93
2017-08-28T23:19:06.939Z,9.40
2017-08-28T23:21:34.200Z,7.10
2017-08-28T23:24:01.480Z,8.30
2017-08-28T23:26:28.742Z,8.63
2017-08-28T23:28:56.036Z,13.93
2017-08-28T23:31:23.295Z,7.90
2017-08-28T23:33:50.603Z,8.93
2017-08-28T23:36:17.889Z,9.20
2017-08-28T23:38:45.158Z,9.03
2017-08-28T23:41:12.467Z,13.83
2017-08-28T23:43:39.800Z,7.43
2017-08-28T23:46:07.052Z,10.63
2017-08-28T23:51:08.133Z,7.93
2017-08-28T23:53:35.419Z,8.53
2017-08-28T23:56:02.727Z,7.47
2017-08-28T23:58:30.029Z,12.00
